Time;durP1;ratioP1;P1;durP2;ratioP2;P2;SDS_P1;SDS_P2;PMS_P1;PMS_P2;Temp;Humidity;BMP_temperature;BMP_pressure;BME280_temperature;BME280_humidity;BME280_pressure;Samples;Min_cycle;Max_cycle;Signal;HPM_P1;HPM_P2
2023/09/06 00:02:24;;;;;;;6.80;3.17;;;;;;;26.18;40.04;100395.09;4467171;32;32572;-67
2023/09/06 00:04:54;;;;;;;4.85;2.45;;;;;;;26.17;40.18;100396.16;4454125;32;33417;-67
2023/09/06 00:07:23;;;;;;;4.53;3.05;;;;;;;26.17;40.08;100396.16;4468076;32;33857;-68
2023/09/06 00:09:50;;;;;;;4.70;2.92;;;;;;;26.17;40.07;100390.69;4475134;32;34675;-71
2023/09/06 00:12:20;;;;;;;4.85;2.80;;;;;;;26.16;40.02;100399.97;4483736;32;33662;-66
2023/09/06 00:14:48;;;;;;;5.67;3.13;;;;;;;26.16;39.99;100391.78;4482473;32;34115;-65
2023/09/06 00:17:15;;;;;;;6.93;3.00;;;;;;;26.16;39.98;100393.63;4483793;32;33905;-65
2023/09/06 00:19:43;;;;;;;5.18;2.87;;;;;;;26.15;39.96;100386.50;4482842;32;33909;-73
2023/09/06 00:22:10;;;;;;;5.00;2.80;;;;;;;26.13;39.91;100392.22;4483550;32;34667;-71
2023/09/06 00:24:38;;;;;;;4.35;2.97;;;;;;;26.13;39.88;100381.28;4483304;32;33474;-68
2023/09/06 00:27:06;;;;;;;6.03;3.20;;;;;;;26.11;39.89;100380.69;4482627;32;33536;-71
2023/09/06 00:29:33;;;;;;;6.15;3.00;;;;;;;26.11;39.89;100386.16;4483524;32;33689;-73
2023/09/06 00:32:01;;;;;;;4.80;3.10;;;;;;;26.12;39.91;100387.81;4483132;32;34856;-69
2023/09/06 00:34:31;;;;;;;5.75;3.03;;;;;;;26.10;39.89;100384.47;4483468;32;33691;-69
2023/09/06 00:37:01;;;;;;;4.78;2.90;;;;;;;26.10;39.92;100381.72;4482726;32;33948;-69
2023/09/06 00:39:30;;;;;;;5.28;2.50;;;;;;;26.09;40.02;100382.81;4469474;32;33464;-68
2023/09/06 00:42:00;;;;;;;5.43;3.15;;;;;;;26.10;39.96;100387.19;4483312;32;34573;-73
2023/09/06 00:44:28;;;;;;;7.18;3.15;;;;;;;26.10;39.95;100387.19;4483458;32;33467;-69
2023/09/06 00:46:55;;;;;;;5.20;2.90;;;;;;;26.09;39.95;100393.75;4481913;32;33985;-66
2023/09/06 00:49:23;;;;;;;4.47;2.87;;;;;;;26.09;39.92;100392.91;4483208;32;34036;-67
2023/09/06 00:51:51;;;;;;;4.22;2.62;;;;;;;26.07;39.90;100390.41;4481587;32;33804;-67
2023/09/06 00:54:18;;;;;;;4.93;2.72;;;;;;;26.08;39.79;100388.50;4482408;32;33118;-72
2023/09/06 00:56:46;;;;;;;4.75;2.58;;;;;;;26.06;39.74;100387.88;4483043;32;33944;-65
2023/09/06 00:59:15;;;;;;;5.60;3.20;;;;;;;26.05;39.79;100389.78;4468938;32;33032;-68
2023/09/06 01:01:43;;;;;;;5.28;2.70;;;;;;;26.05;39.77;100389.78;4481905;32;32997;-71
2023/09/06 01:04:12;;;;;;;6.30;3.00;;;;;;;26.05;39.74;100387.06;4483039;32;33291;-69
2023/09/06 01:06:39;;;;;;;5.35;2.97;;;;;;;26.03;39.74;100378.25;4468528;32;33921;-70
2023/09/06 01:09:07;;;;;;;6.20;2.85;;;;;;;26.03;39.75;100388.38;4481647;32;34727;-67
2023/09/06 01:11:37;;;;;;;4.68;2.67;;;;;;;26.02;39.74;100382.06;4468596;32;33850;-71
2023/09/06 01:14:05;;;;;;;5.35;3.05;;;;;;;26.02;39.70;100387.53;4482829;32;33332;-68
2023/09/06 01:16:41;;;;;;;5.55;3.15;;;;;;;26.01;39.68;100391.31;4481578;32;34712;-72
2023/09/06 01:19:11;;;;;;;4.57;2.65;;;;;;;26.01;39.68;100394.03;4469308;32;34398;-66
2023/09/06 01:21:41;;;;;;;3.17;2.37;;;;;;;26.01;39.68;100393.22;4481427;32;34662;-67
2023/09/06 01:24:09;;;;;;;5.80;3.10;;;;;;;26.01;39.65;100385.84;4481481;32;33418;-70
2023/09/06 01:26:37;;;;;;;4.53;2.83;;;;;;;26.01;39.60;100385.84;4467808;32;34056;-71
2023/09/06 01:29:05;;;;;;;3.80;2.55;;;;;;;26.00;39.60;100378.72;4481486;32;33428;-72
2023/09/06 01:31:33;;;;;;;4.72;2.67;;;;;;;25.99;39.53;100379.78;4481174;32;33149;-72
2023/09/06 01:34:02;;;;;;;6.55;2.90;;;;;;;25.98;39.53;100383.59;4482357;32;33354;-66
2023/09/06 01:36:29;;;;;;;4.80;2.90;;;;;;;25.98;39.51;100390.97;4481531;32;34320;-71
2023/09/06 01:38:57;;;;;;;7.32;2.62;;;;;;;25.98;39.50;100393.69;4484916;32;33695;-70
2023/09/06 01:41:25;;;;;;;5.03;3.25;;;;;;;25.98;39.47;100393.69;4484752;32;33629;-72
2023/09/06 01:43:54;;;;;;;3.90;2.70;;;;;;;25.97;39.47;100381.88;4484410;32;33430;-65
2023/09/06 01:46:23;;;;;;;5.50;2.92;;;;;;;25.97;39.43;100383.78;4484589;32;34582;-68
2023/09/06 01:48:51;;;;;;;5.37;3.28;;;;;;;25.95;39.40;100384.88;4483266;32;34475;-68
2023/09/06 01:51:19;;;;;;;5.72;2.92;;;;;;;25.96;39.39;100385.69;4485013;32;33776;-70
2023/09/06 01:53:46;;;;;;;5.82;2.80;;;;;;;25.95;39.43;100390.34;4484824;32;33494;-72
2023/09/06 01:56:14;;;;;;;6.25;3.15;;;;;;;25.94;39.40;100379.63;4484644;32;33964;-69
2023/09/06 01:58:42;;;;;;;6.05;3.12;;;;;;;25.93;39.36;100387.00;4484924;32;33907;-70
2023/09/06 02:01:10;;;;;;;4.12;2.62;;;;;;;25.93;39.33;100387.00;4482751;32;33913;-69
2023/09/06 02:03:38;;;;;;;4.68;2.78;;;;;;;25.93;39.32;100388.91;4483389;32;33438;-73
2023/09/06 02:06:06;;;;;;;4.87;3.10;;;;;;;25.92;39.27;100384.47;4483426;32;33658;-70
2023/09/06 02:08:35;;;;;;;5.22;2.83;;;;;;;25.93;39.30;100394.38;4483442;32;34697;-70
2023/09/06 02:11:03;;;;;;;6.40;3.10;;;;;;;25.91;39.29;100391.03;4484267;32;33898;-65
2023/09/06 02:13:31;;;;;;;6.32;2.85;;;;;;;25.91;39.22;100378.19;4484540;32;34364;-71
2023/09/06 02:16:01;;;;;;;4.57;2.87;;;;;;;25.90;39.20;100383.88;4484647;32;33884;-66
2023/09/06 02:18:29;;;;;;;8.77;3.20;;;;;;;25.89;39.22;100377.59;4483862;32;33979;-65
2023/09/06 02:20:58;;;;;;;7.43;3.25;;;;;;;25.90;39.17;100383.88;4483315;32;34586;-67
2023/09/06 02:23:26;;;;;;;5.12;2.75;;;;;;;25.90;39.20;100383.88;4483138;32;32416;-72
2023/09/06 02:25:53;;;;;;;5.68;2.50;;;;;;;25.89;39.18;100374.84;4484397;32;33958;-70
2023/09/06 02:28:21;;;;;;;4.78;2.97;;;;;;;25.89;39.17;100374.03;4484486;32;34567;-69
2023/09/06 02:30:49;;;;;;;5.90;2.85;;;;;;;25.88;39.18;100369.59;4483122;32;33606;-68
2023/09/06 02:33:16;;;;;;;4.18;2.60;;;;;;;25.87;39.13;100368.75;4484499;32;32737;-67
2023/09/06 02:35:45;;;;;;;6.82;3.17;;;;;;;25.87;39.15;100367.94;4483735;32;33920;-67
2023/09/06 02:38:14;;;;;;;5.12;2.78;;;;;;;25.87;39.11;100379.69;4484260;32;33990;-73
2023/09/06 02:40:42;;;;;;;6.28;2.80;;;;;;;25.87;39.09;100367.94;4484400;32;33541;-65
2023/09/06 02:43:10;;;;;;;5.62;2.75;;;;;;;25.86;39.07;100371.75;4484496;32;33393;-71
2023/09/06 02:45:39;;;;;;;4.97;2.87;;;;;;;25.85;39.06;100376.37;4484360;32;33515;-66
2023/09/06 02:48:07;;;;;;;4.80;2.67;;;;;;;25.84;39.03;100374.72;4483811;32;33707;-71
2023/09/06 02:50:35;;;;;;;4.70;2.80;;;;;;;25.84;39.04;100373.88;4482986;32;33492;-72
2023/09/06 02:53:03;;;;;;;4.15;2.42;;;;;;;25.84;39.03;100371.97;4482184;32;33246;-72
2023/09/06 02:55:35;;;;;;;5.35;2.90;;;;;;;25.83;39.00;100377.66;4483382;32;33750;-72
2023/09/06 02:58:04;;;;;;;5.75;3.25;;;;;;;25.82;38.98;100376.81;4484344;32;33616;-69
2023/09/06 03:00:35;;;;;;;4.93;2.60;;;;;;;25.83;38.94;100377.66;4484216;32;33525;-72
2023/09/06 03:03:07;;;;;;;5.87;2.85;;;;;;;25.84;38.93;100379.34;4484329;32;33090;-68
2023/09/06 03:05:41;;;;;;;5.72;2.92;;;;;;;25.83;38.91;100372.19;4483128;32;34595;-72
2023/09/06 03:08:10;;;;;;;4.93;2.72;;;;;;;25.83;38.84;100378.47;4483249;32;33674;-74
2023/09/06 03:10:41;;;;;;;5.53;2.90;;;;;;;25.82;38.78;100378.72;4481466;32;33814;-73
2023/09/06 03:13:12;;;;;;;7.80;3.20;;;;;;;25.80;38.86;100384.44;4483134;32;34074;-69
2023/09/06 03:15:43;;;;;;;5.60;3.10;;;;;;;25.81;38.79;100383.34;4483139;32;33847;-73
2023/09/06 03:18:11;;;;;;;5.35;2.58;;;;;;;25.79;38.79;100374.56;4484322;32;34276;-69
2023/09/06 03:20:42;;;;;;;5.15;2.53;;;;;;;25.81;38.78;100382.53;4484303;32;34595;-70
2023/09/06 03:23:17;;;;;;;6.22;2.78;;;;;;;25.80;38.74;100387.16;4484430;32;33836;-65
2023/09/06 03:25:50;;;;;;;5.00;2.87;;;;;;;25.79;38.72;100377.31;4480102;32;34338;-72
2023/09/06 03:28:18;;;;;;;5.07;2.87;;;;;;;25.79;38.76;100379.19;4468506;32;33593;-74
2023/09/06 03:30:47;;;;;;;5.60;3.12;;;;;;;25.79;38.71;100373.72;4468479;32;34244;-71
2023/09/06 03:33:14;;;;;;;4.32;2.45;;;;;;;25.78;38.67;100378.34;4467291;32;33405;-71
2023/09/06 03:35:45;;;;;;;5.90;2.83;;;;;;;25.78;38.73;100383.81;4467469;32;33931;-73
2023/09/06 03:38:17;;;;;;;4.12;2.60;;;;;;;25.78;38.69;100389.28;4468142;32;34673;-73
2023/09/06 03:40:45;;;;;;;5.62;3.00;;;;;;;25.78;38.62;100380.25;4467018;32;33697;-68
2023/09/06 03:43:17;;;;;;;5.07;2.75;;;;;;;25.78;38.60;100383.81;4467547;32;33486;-71
2023/09/06 03:45:50;;;;;;;4.72;3.00;;;;;;;25.76;38.63;100375.00;4468130;32;35130;-70
2023/09/06 03:48:20;;;;;;;5.35;2.97;;;;;;;25.76;38.63;100385.94;4468176;32;33626;-68
2023/09/06 03:50:55;;;;;;;5.60;2.92;;;;;;;25.75;38.60;100386.16;4466657;32;34499;-73
2023/09/06 03:53:26;;;;;;;5.37;2.75;;;;;;;25.75;38.64;100388.88;4466913;32;33218;-69
2023/09/06 03:55:56;;;;;;;5.22;2.90;;;;;;;25.74;38.60;100392.66;4466872;32;33762;-66
2023/09/06 03:58:27;;;;;;;5.35;2.80;;;;;;;25.74;38.54;100393.53;4468406;32;33583;-71
2023/09/06 04:00:57;;;;;;;6.65;3.62;;;;;;;25.73;38.49;100397.28;4467626;32;33261;-72
2023/09/06 04:03:26;;;;;;;6.07;3.08;;;;;;;25.72;38.50;100392.91;4466927;32;33368;-68
2023/09/06 04:05:57;;;;;;;7.37;3.10;;;;;;;25.73;38.59;100391.00;4468261;32;33741;-66
2023/09/06 04:08:28;;;;;;;7.32;2.95;;;;;;;25.72;38.56;100395.63;4467895;32;34056;-67
2023/09/06 04:10:56;;;;;;;5.95;2.85;;;;;;;25.70;38.52;100392.31;4483837;32;33757;-68
2023/09/06 04:13:24;;;;;;;5.10;3.03;;;;;;;25.70;38.51;100395.88;4482495;32;33311;-72
2023/09/06 04:15:52;;;;;;;6.40;3.35;;;;;;;25.69;38.55;100394.19;4483833;32;33890;-68
2023/09/06 04:18:20;;;;;;;11.15;3.15;;;;;;;25.68;38.48;100395.25;4482775;32;34752;-71
2023/09/06 04:20:49;;;;;;;5.60;2.85;;;;;;;25.68;38.45;100389.78;4483611;32;33781;-67
2023/09/06 04:23:17;;;;;;;;;;;;;;;25.67;38.50;100395.47;4484256;32;34026;-72
2023/09/06 04:25:45;;;;;;;7.47;2.80;;;;;;;25.76;38.28;100398.78;4483417;32;33927;-72
2023/09/06 04:28:14;;;;;;;8.00;3.00;;;;;;;25.68;38.32;100397.97;4483734;32;33935;-70
2023/09/06 04:30:45;;;;;;;7.18;3.08;;;;;;;25.66;38.35;100402.84;4483608;32;33708;-72
2023/09/06 04:33:14;;;;;;;6.72;3.08;;;;;;;25.66;38.38;100405.56;4483649;32;33330;-67
2023/09/06 04:35:43;;;;;;;6.32;3.60;;;;;;;25.66;38.36;100407.47;4454325;32;34594;-70
2023/09/06 04:38:15;;;;;;;4.65;2.60;;;;;;;25.64;38.21;100407.69;4453563;32;34031;-70
2023/09/06 04:40:44;;;;;;;5.22;2.83;;;;;;;25.65;38.23;100409.38;4467922;32;33822;-71
2023/09/06 04:43:13;;;;;;;5.55;3.10;;;;;;;25.66;38.31;100418.41;4466612;32;34419;-70
2023/09/06 04:45:42;;;;;;;5.80;3.28;;;;;;;25.65;38.26;100417.56;4467723;32;34554;-67
2023/09/06 04:48:10;;;;;;;5.60;2.78;;;;;;;25.65;38.25;100423.03;4467673;32;34947;-68
2023/09/06 04:50:40;;;;;;;7.25;3.50;;;;;;;25.64;38.22;100415.06;4469851;32;33788;-70
2023/09/06 04:53:08;;;;;;;7.40;3.33;;;;;;;25.64;38.18;100417.78;4483035;32;33609;-67
2023/09/06 04:55:36;;;;;;;7.90;3.45;;;;;;;25.63;38.20;100414.22;4481932;32;34591;-71
2023/09/06 04:58:04;;;;;;;6.15;3.00;;;;;;;25.63;38.36;100425.16;4483411;32;34446;-66
2023/09/06 05:00:36;;;;;;;6.12;2.85;;;;;;;25.63;38.34;100418.84;4469108;32;33895;-72
2023/09/06 05:03:08;;;;;;;8.57;3.28;;;;;;;25.62;38.41;100420.75;4482795;32;33634;-68
2023/09/06 05:05:39;;;;;;;6.20;3.30;;;;;;;25.63;38.40;100425.16;4481517;32;33872;-71
2023/09/06 05:08:07;;;;;;;6.93;3.58;;;;;;;25.63;38.45;100422.41;4468525;32;33973;-70
2023/09/06 05:10:36;;;;;;;6.05;3.28;;;;;;;25.63;38.43;100427.06;4474513;32;32990;-67
2023/09/06 05:13:07;;;;;;;6.32;3.40;;;;;;;25.63;38.42;100425.16;4471738;32;33432;-69
2023/09/06 05:15:37;;;;;;;5.47;3.10;;;;;;;25.63;38.38;100427.88;4479450;32;34650;-65
2023/09/06 05:18:06;;;;;;;7.82;3.33;;;;;;;25.63;38.47;100429.78;4472460;32;33978;-71
2023/09/06 05:20:35;;;;;;;6.87;3.20;;;;;;;25.61;38.54;100421.81;4469237;32;34678;-72
2023/09/06 05:23:07;;;;;;;5.57;2.60;;;;;;;25.62;38.57;100431.69;4468388;32;33134;-69
2023/09/06 05:25:35;;;;;;;7.87;3.05;;;;;;;25.64;38.58;100428.72;4469032;32;34666;-71
2023/09/06 05:28:04;;;;;;;5.82;3.30;;;;;;;25.63;38.68;100424.31;4467965;32;33932;-68
2023/09/06 05:30:32;;;;;;;5.15;3.15;;;;;;;25.62;38.86;100431.69;4468298;32;34143;-68
2023/09/06 05:33:02;;;;;;;7.35;3.05;;;;;;;25.65;38.83;100430.41;4469320;32;33355;-71
2023/09/06 05:35:30;;;;;;;5.45;3.25;;;;;;;25.65;38.81;100430.41;4469338;32;33899;-65
2023/09/06 05:37:57;;;;;;;4.95;3.10;;;;;;;25.64;38.82;100428.72;4469347;32;33954;-68
2023/09/06 05:40:26;;;;;;;5.95;2.92;;;;;;;25.64;38.88;100432.28;4469222;32;33804;-65
2023/09/06 05:42:54;;;;;;;7.93;2.92;;;;;;;25.64;38.89;100434.19;4468724;32;33421;-65
2023/09/06 05:45:22;;;;;;;8.05;3.58;;;;;;;25.63;38.89;100435.25;4469006;32;33877;-66
2023/09/06 05:47:50;;;;;;;5.62;2.95;;;;;;;25.62;38.94;100437.16;4468716;32;34845;-65
2023/09/06 05:50:19;;;;;;;11.80;3.42;;;;;;;25.63;39.07;100446.19;4469393;32;33410;-65
2023/09/06 05:52:47;;;;;;;8.82;3.37;;;;;;;25.62;39.09;100444.50;4468055;32;34078;-69
2023/09/06 05:55:15;;;;;;;5.87;3.03;;;;;;;25.61;39.20;100443.69;4467961;32;33573;-65
2023/09/06 05:57:44;;;;;;;9.93;3.97;;;;;;;25.61;39.27;100440.13;4476024;31;34727;-65
2023/09/06 06:00:12;;;;;;;8.40;3.62;;;;;;;25.62;39.29;100431.69;4484237;32;33948;-67
2023/09/06 06:02:45;;;;;;;11.88;3.67;;;;;;;25.62;39.35;100444.50;4483427;32;34051;-65
2023/09/06 06:05:14;;;;;;;6.20;3.80;;;;;;;25.62;39.39;100442.62;4483063;32;33517;-69
2023/09/06 06:07:43;;;;;;;7.53;3.40;;;;;;;25.62;39.45;100434.41;4483446;32;34014;-70
2023/09/06 06:10:12;;;;;;;8.65;3.35;;;;;;;25.62;39.54;100437.16;4483005;32;33819;-66
2023/09/06 06:12:41;;;;;;;7.00;3.40;;;;;;;25.63;39.53;100433.34;4484085;32;33702;-65
2023/09/06 06:15:11;;;;;;;8.85;3.80;;;;;;;25.65;39.52;100442.19;4484239;32;33927;-65
2023/09/06 06:17:40;;;;;;;12.70;4.37;;;;;;;25.64;39.51;100443.22;4484527;32;33785;-65
2023/09/06 06:20:10;;;;;;;16.40;3.80;;;;;;;25.65;39.53;100452.28;4484401;32;34094;-65
2023/09/06 06:22:39;;;;;;;11.10;4.60;;;;;;;25.63;39.59;100455.22;4483152;32;33657;-65
2023/09/06 06:25:08;;;;;;;9.93;3.90;;;;;;;25.64;39.65;100453.31;4483794;32;34503;-66
2023/09/06 06:27:39;;;;;;;8.05;3.47;;;;;;;25.63;39.68;100452.47;4482517;32;33714;-64
2023/09/06 06:30:07;;;;;;;11.70;4.35;;;;;;;25.62;39.73;100448.09;4482493;32;34655;-66
2023/09/06 06:32:36;;;;;;;9.52;3.78;;;;;;;25.64;39.70;100453.31;4480466;32;33118;-66
2023/09/06 06:35:08;;;;;;;9.07;3.87;;;;;;;25.63;39.68;100457.94;4482233;32;33772;-65
2023/09/06 06:37:37;;;;;;;12.20;4.20;;;;;;;25.63;39.71;100457.94;4482351;32;34561;-68
2023/09/06 06:40:05;;;;;;;7.82;3.83;;;;;;;25.63;39.68;100468.03;4482954;32;33670;-65
2023/09/06 06:42:33;;;;;;;7.12;3.72;;;;;;;25.61;39.70;100468.28;4482500;32;33210;-66
2023/09/06 06:45:04;;;;;;;7.87;3.47;;;;;;;25.62;39.71;100466.38;4482793;32;33683;-65
2023/09/06 06:47:32;;;;;;;7.87;3.42;;;;;;;25.61;39.70;100468.28;4484256;32;34680;-64
2023/09/06 06:50:03;;;;;;;11.12;3.80;;;;;;;25.63;39.67;100470.78;4484466;32;33995;-65
2023/09/06 06:52:33;;;;;;;11.05;4.05;;;;;;;25.61;39.68;100471.00;4484304;32;34246;-65
2023/09/06 06:55:00;;;;;;;9.10;3.33;;;;;;;25.61;39.67;100471.00;4484218;32;34667;-66
2023/09/06 06:57:30;;;;;;;7.43;3.28;;;;;;;25.62;39.67;100480.87;4484469;32;34696;-67
2023/09/06 06:59:57;;;;;;;7.57;4.22;;;;;;;25.61;39.64;100478.38;4484329;32;33859;-65
2023/09/06 07:02:25;;;;;;;8.07;3.40;;;;;;;25.61;39.65;100478.38;4484172;32;33373;-73
2023/09/06 07:04:55;;;;;;;6.97;3.00;;;;;;;25.61;39.62;100470.19;4484229;32;33674;-66
2023/09/06 07:07:24;;;;;;;5.70;3.25;;;;;;;25.61;39.68;100471.00;4484266;32;34015;-66
2023/09/06 07:09:52;;;;;;;11.10;3.97;;;;;;;25.60;39.50;100473.94;4483848;32;34774;-68
2023/09/06 07:12:19;;;;;;;8.50;3.30;;;;;;;25.61;39.42;100475.66;4484164;32;34056;-67
2023/09/06 07:14:47;;;;;;;7.62;3.60;;;;;;;25.60;39.41;100477.53;4484102;32;33912;-66
2023/09/06 07:17:15;;;;;;;7.90;3.33;;;;;;;25.60;39.43;100472.09;4484140;32;33764;-66
2023/09/06 07:19:42;;;;;;;7.95;3.28;;;;;;;25.60;39.47;100468.47;4484334;32;33935;-64
2023/09/06 07:22:10;;;;;;;5.32;3.00;;;;;;;25.61;39.59;100468.28;4484190;32;33512;-64
2023/09/06 07:24:38;;;;;;;6.45;3.25;;;;;;;25.61;39.61;100457.34;4484166;32;33847;-66
2023/09/06 07:27:06;;;;;;;7.85;3.17;;;;;;;25.62;39.56;100467.22;4484144;32;35278;-65
2023/09/06 07:29:34;;;;;;;6.65;3.40;;;;;;;25.63;39.63;100462.56;4484175;32;33801;-64
2023/09/06 07:32:03;;;;;;;7.62;3.22;;;;;;;25.62;39.63;100464.47;4483887;32;33272;-65
2023/09/06 07:34:30;;;;;;;4.85;3.00;;;;;;;25.63;39.61;100466.16;4483812;32;34105;-65
2023/09/06 07:36:58;;;;;;;8.43;3.25;;;;;;;25.64;39.64;100462.34;4484292;32;33979;-64
2023/09/06 07:39:26;;;;;;;6.65;2.92;;;;;;;25.63;39.60;100466.16;4484041;32;33486;-65
2023/09/06 07:41:55;;;;;;;6.30;3.12;;;;;;;25.64;39.60;100462.34;4484175;32;33319;-65
2023/09/06 07:44:22;;;;;;;5.62;3.08;;;;;;;25.63;39.59;100460.69;4483943;32;33807;-64
2023/09/06 07:46:50;;;;;;;6.07;3.37;;;;;;;25.64;39.57;100470.53;4483881;32;34487;-65
2023/09/06 07:49:21;;;;;;;6.80;3.37;;;;;;;25.65;39.56;100472.25;4483987;32;34501;-64
2023/09/06 07:51:49;;;;;;;7.30;3.53;;;;;;;25.65;39.54;100469.50;4483821;32;33228;-64
2023/09/06 07:54:18;;;;;;;6.30;3.10;;;;;;;25.65;39.50;100477.72;4483934;32;33746;-64
2023/09/06 07:56:47;;;;;;;5.22;2.95;;;;;;;25.67;39.51;100469.28;4482712;32;33943;-65
2023/09/06 07:59:16;;;;;;;6.37;3.12;;;;;;;25.66;39.47;100468.44;4483594;32;34066;-65
2023/09/06 08:01:44;;;;;;;6.22;2.85;;;;;;;25.68;39.43;100477.22;4482710;32;33427;-64
2023/09/06 08:04:12;;;;;;;5.57;3.12;;;;;;;25.70;39.38;100475.13;4483850;32;34202;-66
2023/09/06 08:06:40;;;;;;;5.32;2.90;;;;;;;25.68;39.40;100479.97;4483695;32;34895;-65
2023/09/06 08:09:07;;;;;;;5.93;3.12;;;;;;;25.70;39.38;100479.75;4483757;32;34697;-65
2023/09/06 08:11:35;;;;;;;6.00;3.10;;;;;;;25.70;39.32;100480.59;4483683;32;33319;-65
2023/09/06 08:14:03;;;;;;;10.10;3.47;;;;;;;25.72;39.29;100485.00;4483751;32;33933;-65
2023/09/06 08:16:31;;;;;;;6.30;3.17;;;;;;;25.73;39.18;100489.41;4483734;32;34754;-65
2023/09/06 08:18:59;;;;;;;6.18;3.62;;;;;;;25.73;39.10;100483.94;4482512;32;34674;-65
2023/09/06 08:21:26;;;;;;;6.53;3.10;;;;;;;25.74;39.12;100488.31;4483566;32;33235;-65
2023/09/06 08:23:54;;;;;;;6.50;3.28;;;;;;;25.75;39.14;100481.81;4483577;32;33953;-65
2023/09/06 08:26:22;;;;;;;5.32;3.10;;;;;;;25.74;39.16;100483.72;4483592;32;33734;-65
2023/09/06 08:28:49;;;;;;;8.32;3.80;;;;;;;25.76;39.12;100483.50;4483436;32;33864;-65
2023/09/06 08:31:17;;;;;;;7.97;3.55;;;;;;;25.76;39.12;100481.63;4483611;32;33258;-65
2023/09/06 08:33:45;;;;;;;7.90;3.55;;;;;;;25.78;39.17;100489.59;4483783;32;34648;-64
2023/09/06 08:36:12;;;;;;;6.20;3.58;;;;;;;25.78;39.28;100482.22;4483275;32;34781;-64
2023/09/06 08:38:40;;;;;;;7.68;3.80;;;;;;;25.79;39.26;100492.09;4482128;32;34286;-65
2023/09/06 08:41:08;;;;;;;6.82;2.92;;;;;;;25.80;39.24;100479.28;4482181;32;33372;-66
2023/09/06 08:43:38;;;;;;;9.43;3.30;;;;;;;25.80;39.25;100488.31;4482094;32;34743;-71
2023/09/06 08:46:10;;;;;;;7.90;3.40;;;;;;;25.80;39.28;100488.31;4482084;32;33641;-64
2023/09/06 08:48:37;;;;;;;9.38;3.90;;;;;;;25.81;39.40;100484.50;4465688;32;33708;-69
2023/09/06 08:51:05;;;;;;;7.75;3.70;;;;;;;25.83;39.40;100478.81;4457673;32;33632;-66
2023/09/06 08:53:34;;;;;;;8.57;3.10;;;;;;;25.84;39.39;100483.22;4460487;31;34564;-65
2023/09/06 08:56:01;;;;;;;8.25;3.45;;;;;;;25.84;39.40;100478.59;4467943;31;34021;-65
2023/09/06 08:58:29;;;;;;;5.43;3.05;;;;;;;25.85;39.38;100484.91;4460052;32;34239;-66
2023/09/06 09:00:57;;;;;;;6.00;3.45;;;;;;;25.87;39.39;100482.75;4467830;32;33424;-66
2023/09/06 09:03:25;;;;;;;8.23;2.92;;;;;;;25.88;39.32;100484.41;4468055;31;33672;-66
2023/09/06 09:06:06;;;;;;;7.57;3.42;;;;;;;25.88;39.27;100478.97;4482558;31;34645;-66
2023/09/06 09:08:34;;;;;;;6.18;3.42;;;;;;;25.89;39.23;100477.91;4471567;32;33640;-66
2023/09/06 09:11:07;;;;;;;7.60;3.25;;;;;;;25.89;39.16;100486.94;4476726;31;33220;-68
2023/09/06 09:13:36;;;;;;;6.65;3.37;;;;;;;25.90;39.11;100476.84;4473157;31;34316;-66
2023/09/06 09:16:13;;;;;;;6.85;3.60;;;;;;;25.92;39.13;100481.00;4484786;32;34007;-66
2023/09/06 09:18:42;;;;;;;8.32;3.45;;;;;;;25.93;39.01;100485.44;4475167;31;34572;-66
2023/09/06 09:21:11;;;;;;;7.70;3.53;;;;;;;25.93;38.89;100485.44;4455369;32;33126;-69
2023/09/06 09:23:57;;;;;;;7.50;4.10;;;;;;;25.94;38.85;100480.81;4470858;31;34932;-67
2023/09/06 09:26:25;;;;;;;9.35;3.30;;;;;;;25.97;38.80;100482.22;4484459;32;32587;-67
2023/09/06 09:28:52;;;;;;;7.97;3.78;;;;;;;25.97;38.83;100474.84;4483583;32;33667;-68
2023/09/06 09:31:22;;;;;;;8.55;3.42;;;;;;;25.95;38.79;100477.84;4467610;32;31913;-67
2023/09/06 09:33:50;;;;;;;6.60;3.53;;;;;;;25.97;38.61;100474.84;4467810;32;33975;-69
2023/09/06 09:36:18;;;;;;;8.02;3.25;;;;;;;25.97;38.57;100474.84;4467930;32;33941;-67
2023/09/06 09:38:52;;;;;;;5.65;3.17;;;;;;;25.98;38.62;100476.56;4468395;31;34526;-68
2023/09/06 09:41:20;;;;;;;8.38;3.20;;;;;;;25.98;38.62;100473.00;4475108;32;33227;-66
2023/09/06 09:43:48;;;;;;;7.75;3.72;;;;;;;26.01;38.58;100480.72;4470914;32;33572;-68
2023/09/06 09:46:26;;;;;;;6.37;3.50;;;;;;;26.02;38.50;100471.44;4477818;31;33460;-69
2023/09/06 09:48:56;;;;;;;6.37;3.03;;;;;;;26.05;38.33;100474.56;4467267;32;34423;-69
2023/09/06 09:51:24;;;;;;;;;;;;;;;26.03;38.29;100460.31;4468212;32;33457;-66
2023/09/06 09:53:51;;;;;;;6.32;3.15;;;;;;;26.14;38.07;100470.47;4471232;31;34055;-67
2023/09/06 09:56:19;;;;;;;9.80;3.60;;;;;;;26.07;38.19;100469.72;4478079;32;33808;-67
2023/09/06 09:58:47;;;;;;;5.95;3.05;;;;;;;26.05;38.24;100463.63;4463972;32;34250;-70
2023/09/06 10:01:14;;;;;;;6.93;3.17;;;;;;;26.09;38.19;100464.84;4467733;32;33314;-70
2023/09/06 10:03:43;;;;;;;9.75;3.30;;;;;;;26.09;38.15;100464.84;4454572;32;33862;-69
2023/09/06 10:06:11;;;;;;;11.20;3.58;;;;;;;26.10;38.11;100461.03;4469812;31;34730;-68
2023/09/06 10:08:39;;;;;;;6.87;2.83;;;;;;;26.10;38.17;100454.75;4460100;32;32773;-68
2023/09/06 10:11:07;;;;;;;6.37;3.45;;;;;;;26.11;38.19;100457.25;4469907;32;33248;-68
2023/09/06 10:13:37;;;;;;;6.28;3.08;;;;;;;26.12;38.21;100456.19;4482692;31;33937;-68
2023/09/06 10:16:09;;;;;;;6.97;3.22;;;;;;;26.12;38.15;100450.72;4476991;32;34796;-67
2023/09/06 10:18:36;;;;;;;6.03;3.45;;;;;;;26.13;38.15;100446.91;4454190;32;33948;-67
2023/09/06 10:21:04;;;;;;;6.05;3.40;;;;;;;26.14;38.00;100445.84;4468423;31;33622;-67
2023/09/06 10:23:34;;;;;;;6.05;3.20;;;;;;;26.15;37.96;100444.78;4461464;31;33986;-68
2023/09/06 10:26:03;;;;;;;6.30;3.30;;;;;;;26.16;37.85;100440.13;4483307;32;33980;-68
2023/09/06 10:28:32;;;;;;;6.55;3.05;;;;;;;26.21;37.22;100440.31;4483600;31;34097;-66
2023/09/06 10:31:07;;;;;;;6.90;3.27;;;;;;;26.25;37.12;100448.88;4484824;32;33279;-67
2023/09/06 10:33:35;;;;;;;5.15;2.90;;;;;;;26.27;36.91;100442.12;4477063;32;33940;-67
2023/09/06 10:36:11;;;;;;;7.32;3.37;;;;;;;26.28;37.08;100446.50;4471566;31;34875;-67
2023/09/06 10:38:55;;;;;;;7.07;3.12;;;;;;;26.30;37.20;100449.00;4483242;32;33958;-67
2023/09/06 10:41:23;;;;;;;7.72;3.17;;;;;;;26.33;36.92;100443.09;4477443;31;34096;-68
2023/09/06 10:44:04;;;;;;;6.05;3.10;;;;;;;26.32;36.60;100430.50;4467128;32;33965;-66
2023/09/06 10:46:35;;;;;;;5.43;3.22;;;;;;;26.36;36.48;100440.75;4468607;32;33856;-67
2023/09/06 10:49:19;;;;;;;6.35;3.17;;;;;;;26.36;36.45;100431.69;4471145;32;34585;-67
2023/09/06 10:51:59;;;;;;;8.25;3.05;;;;;;;26.33;36.70;100435.72;4473738;31;33507;-66
2023/09/06 10:54:43;;;;;;;5.47;3.22;;;;;;;26.33;36.88;100429.41;4476289;31;34704;-66
2023/09/06 10:57:15;;;;;;;5.07;3.10;;;;;;;26.37;37.04;100425.97;4468501;32;33902;-67
2023/09/06 10:59:44;;;;;;;6.62;2.97;;;;;;;26.32;37.08;100425.84;4463396;32;33884;-70
2023/09/06 11:02:21;;;;;;;5.25;2.97;;;;;;;26.30;37.17;100429.87;4483059;32;33420;-69
2023/09/06 11:05:06;;;;;;;4.97;2.97;;;;;;;26.33;37.34;100421.22;4470191;31;34717;-67
2023/09/06 11:07:44;;;;;;;7.65;3.53;;;;;;;26.34;37.16;100423.69;4467231;32;33981;-67
2023/09/06 11:10:22;;;;;;;7.12;3.05;;;;;;;26.32;36.87;100417.63;4467711;31;34003;-68
2023/09/06 11:12:54;;;;;;;5.15;2.90;;;;;;;26.32;36.62;100416.81;4467239;31;34161;-67
2023/09/06 11:15:22;;;;;;;9.43;3.70;;;;;;;26.32;36.97;100417.63;4482952;32;33835;-67
2023/09/06 11:17:52;;;;;;;6.95;3.03;;;;;;;26.34;36.91;100414.66;4479243;32;33483;-73
2023/09/06 11:20:20;;;;;;;6.57;3.35;;;;;;;26.35;37.28;100413.63;4454177;32;35386;-69
2023/09/06 11:22:52;;;;;;;5.75;3.22;;;;;;;26.33;37.24;100418.47;4470062;31;33130;-67
2023/09/06 11:25:21;;;;;;;7.57;3.08;;;;;;;26.37;36.81;100412.31;4479111;32;33972;-68
2023/09/06 11:27:50;;;;;;;5.05;2.50;;;;;;;26.34;36.57;100412.75;4467041;32;33765;-67
2023/09/06 11:30:26;;;;;;;5.43;2.60;;;;;;;26.34;36.38;100407.28;4466240;31;33950;-68
2023/09/06 11:32:55;;;;;;;5.75;2.92;;;;;;;26.34;36.47;100400.97;4484023;31;33393;-64
2023/09/06 11:35:27;;;;;;;5.53;2.90;;;;;;;26.34;36.78;100403.72;4484032;31;34780;-67